createdAt,value
2018-02-15T00:01:45.013Z,21.93
2018-02-15T00:04:12.621Z,22.67
2018-02-15T00:06:40.203Z,24.77
2018-02-15T00:09:07.744Z,25.27
2018-02-15T00:11:35.700Z,23.70
2018-02-15T00:14:03.222Z,24.23
2018-02-15T00:16:30.759Z,21.07
2018-02-15T00:18:58.490Z,22.33
2018-02-15T00:21:26.035Z,25.40
2018-02-15T00:23:53.550Z,26.67
2018-02-15T00:26:21.121Z,24.33
2018-02-15T00:28:48.697Z,23.07
2018-02-15T00:31:17.044Z,26.83
2018-02-15T00:33:44.775Z,26.00
2018-02-15T00:36:12.324Z,24.60
2018-02-15T00:38:39.901Z,25.13
2018-02-15T00:41:08.227Z,25.03
2018-02-15T00:43:35.762Z,23.77
2018-02-15T00:46:03.306Z,19.20
2018-02-15T00:48:31.543Z,21.37
2018-02-15T00:50:59.019Z,22.20
2018-02-15T00:53:26.593Z,25.70
2018-02-15T00:55:54.446Z,21.30
2018-02-15T00:58:22.028Z,20.07
2018-02-15T01:00:49.609Z,23.73
2018-02-15T01:03:17.223Z,21.73
2018-02-15T01:05:44.768Z,20.43
2018-02-15T01:08:13.112Z,24.93
2018-02-15T01:10:40.713Z,27.47
2018-02-15T01:13:09.026Z,25.33
2018-02-15T01:15:36.599Z,21.23
2018-02-15T01:18:05.301Z,20.97
2018-02-15T01:20:33.644Z,24.27
2018-02-15T01:23:01.224Z,19.60
2018-02-15T01:25:28.800Z,21.90
2018-02-15T01:27:56.381Z,24.30
2018-02-15T01:30:24.728Z,21.47
2018-02-15T01:32:52.711Z,23.33
2018-02-15T01:35:21.023Z,20.77
2018-02-15T01:37:48.567Z,23.60
2018-02-15T01:40:16.335Z,23.30
2018-02-15T01:42:43.919Z,20.73
2018-02-15T01:45:11.455Z,21.60
2018-02-15T01:47:39.759Z,25.13
2018-02-15T01:50:07.387Z,23.87
2018-02-15T01:52:34.965Z,21.77
2018-02-15T01:55:02.661Z,19.83
2018-02-15T01:57:30.244Z,20.93
2018-02-15T01:59:57.824Z,20.70
2018-02-15T02:02:26.350Z,21.37
2018-02-15T02:04:53.816Z,19.87
2018-02-15T02:07:21.328Z,27.83
2018-02-15T02:09:48.912Z,21.70
2018-02-15T02:12:16.448Z,25.13
2018-02-15T02:14:43.987Z,21.97
2018-02-15T02:17:11.943Z,23.40
2018-02-15T02:19:39.493Z,22.20
2018-02-15T02:22:07.031Z,23.87
2018-02-15T02:24:34.897Z,23.73
2018-02-15T02:27:02.429Z,21.43
2018-02-15T02:29:29.979Z,20.47
2018-02-15T02:31:57.849Z,21.63
2018-02-15T02:34:26.172Z,21.07
2018-02-15T02:36:53.751Z,22.47
2018-02-15T02:39:22.188Z,21.53
2018-02-15T02:41:49.738Z,21.77
2018-02-15T02:44:17.295Z,22.00
2018-02-15T02:46:45.748Z,23.80
2018-02-15T02:49:13.295Z,21.33
2018-02-15T02:51:41.036Z,21.63
2018-02-15T02:54:08.609Z,23.10
2018-02-15T02:56:36.931Z,20.87
2018-02-15T02:59:04.478Z,23.40
2018-02-15T03:01:32.205Z,21.90
2018-02-15T03:03:59.722Z,25.77
2018-02-15T03:06:27.288Z,23.13
2018-02-15T03:08:54.960Z,22.33
2018-02-15T03:11:22.510Z,23.93
2018-02-15T03:13:50.051Z,23.13
2018-02-15T03:16:17.799Z,23.33
2018-02-15T03:18:45.339Z,28.07
2018-02-15T03:21:12.825Z,28.37
2018-02-15T03:23:41.189Z,24.33
2018-02-15T03:26:08.741Z,25.73
2018-02-15T03:28:36.342Z,27.70
2018-02-15T03:31:04.330Z,26.50
2018-02-15T03:33:31.885Z,27.70
2018-02-15T03:35:59.461Z,28.97
2018-02-15T03:38:27.076Z,28.40
2018-02-15T03:40:54.649Z,28.47
2018-02-15T03:43:22.130Z,26.40
2018-02-15T03:45:49.787Z,26.97
2018-02-15T03:48:18.095Z,25.30
2018-02-15T03:50:45.640Z,26.83
2018-02-15T03:53:13.260Z,27.27
2018-02-15T03:55:40.836Z,29.77
2018-02-15T03:58:08.375Z,28.87
2018-02-15T04:00:35.988Z,30.03
2018-02-15T04:03:03.527Z,28.40
2018-02-15T04:05:31.106Z,26.00
2018-02-15T04:07:58.956Z,24.70
2018-02-15T04:10:26.667Z,26.40
2018-02-15T04:12:54.968Z,26.00
2018-02-15T04:15:22.536Z,27.10
2018-02-15T04:17:50.103Z,27.77
2018-02-15T04:20:18.361Z,26.77
2018-02-15T04:22:46.729Z,27.60
2018-02-15T04:25:15.076Z,24.83
2018-02-15T04:27:43.395Z,23.13
2018-02-15T04:30:10.971Z,25.37
2018-02-15T04:32:38.511Z,23.97
2018-02-15T04:35:06.083Z,27.83
2018-02-15T04:37:34.418Z,26.53
2018-02-15T04:40:01.996Z,28.33
2018-02-15T04:42:29.541Z,26.00
2018-02-15T04:44:57.331Z,27.30
2018-02-15T04:47:24.900Z,23.50
2018-02-15T04:49:52.385Z,28.17
2018-02-15T04:52:19.960Z,26.80
2018-02-15T04:54:47.531Z,26.33
2018-02-15T04:57:15.310Z,25.93
2018-02-15T04:59:43.846Z,24.83
2018-02-15T05:02:11.426Z,27.03
2018-02-15T05:04:38.975Z,26.73
2018-02-15T05:07:06.550Z,28.00
2018-02-15T05:09:34.091Z,29.00
2018-02-15T05:12:02.408Z,27.47
2018-02-15T05:14:30.356Z,27.63
2018-02-15T05:16:58.600Z,28.30
2018-02-15T05:19:26.172Z,26.40
2018-02-15T05:21:53.885Z,25.47
2018-02-15T05:24:21.468Z,29.97
2018-02-15T05:26:49.048Z,27.23
2018-02-15T05:29:16.656Z,26.97
2018-02-15T05:31:44.199Z,23.03
2018-02-15T05:34:11.742Z,27.33
2018-02-15T05:36:39.691Z,30.20
2018-02-15T05:39:08.037Z,23.83
2018-02-15T05:41:36.381Z,26.93
2018-02-15T05:44:04.039Z,28.83
2018-02-15T05:46:31.587Z,26.00
2018-02-15T05:48:59.901Z,28.73
2018-02-15T05:51:27.475Z,28.00
2018-02-15T05:53:55.023Z,26.03
2018-02-15T05:56:22.509Z,29.50
2018-02-15T05:58:50.104Z,26.93
2018-02-15T06:01:17.639Z,26.57
2018-02-15T06:03:45.186Z,28.33
2018-02-15T06:06:12.801Z,25.77
2018-02-15T06:08:40.357Z,26.50
2018-02-15T06:11:07.932Z,30.67
2018-02-15T06:13:35.500Z,28.53
2018-02-15T06:16:03.810Z,27.50
2018-02-15T06:18:31.353Z,27.67
2018-02-15T06:20:58.919Z,24.57
2018-02-15T06:23:26.470Z,24.57
2018-02-15T06:25:54.012Z,28.00
2018-02-15T06:28:21.613Z,26.80
2018-02-15T06:30:49.196Z,25.93
2018-02-15T06:33:16.735Z,27.77
2018-02-15T06:35:44.436Z,26.77
2018-02-15T06:38:12.016Z,24.73
2018-02-15T06:40:39.604Z,31.30
2018-02-15T06:43:08.066Z,36.67
2018-02-15T06:45:36.376Z,32.97
2018-02-15T06:48:03.947Z,30.03
2018-02-15T06:50:31.593Z,30.10
2018-02-15T06:52:59.136Z,32.90
2018-02-15T06:55:26.716Z,30.70
2018-02-15T06:57:55.043Z,28.13
2018-02-15T07:00:22.632Z,31.83
2018-02-15T07:02:50.177Z,33.10
2018-02-15T07:05:17.971Z,32.20
2018-02-15T07:07:45.557Z,31.83
2018-02-15T07:10:13.863Z,33.53
2018-02-15T07:12:41.611Z,31.03
2018-02-15T07:15:09.152Z,30.90
2018-02-15T07:17:36.695Z,33.43
2018-02-15T07:20:04.501Z,34.73
2018-02-15T07:22:32.807Z,31.40
2018-02-15T07:25:00.322Z,31.73
2018-02-15T07:27:27.907Z,30.57
2018-02-15T07:29:55.463Z,30.90
2018-02-15T07:32:23.003Z,30.93
2018-02-15T07:34:50.550Z,31.20
2018-02-15T07:37:18.088Z,31.07
2018-02-15T07:39:45.677Z,37.40
2018-02-15T07:42:13.625Z,33.97
2018-02-15T07:44:41.960Z,35.60
2018-02-15T07:47:09.437Z,34.70
2018-02-15T07:49:38.076Z,38.17
2018-02-15T07:52:05.619Z,33.97
2018-02-15T07:54:33.200Z,35.73
2018-02-15T07:57:00.725Z,34.57
2018-02-15T07:59:29.265Z,36.83
2018-02-15T08:01:56.811Z,34.13
2018-02-15T08:04:24.417Z,34.80
2018-02-15T08:06:51.965Z,36.60
2018-02-15T08:09:19.515Z,36.90
2018-02-15T08:11:47.318Z,37.47
2018-02-15T08:14:15.661Z,34.37
2018-02-15T08:16:43.205Z,37.70
2018-02-15T08:19:10.798Z,35.53
2018-02-15T08:21:38.372Z,34.33
2018-02-15T08:24:05.951Z,35.13
2018-02-15T08:26:34.295Z,33.83
2018-02-15T08:29:01.880Z,34.93
2018-02-15T08:31:29.460Z,33.07
2018-02-15T08:33:57.031Z,34.23
2018-02-15T08:36:24.576Z,35.40
2018-02-15T08:38:52.109Z,32.43
2018-02-15T08:41:19.844Z,34.90
2018-02-15T08:43:47.325Z,33.73
2018-02-15T08:46:15.623Z,34.97
2018-02-15T08:48:43.200Z,33.30
2018-02-15T08:51:10.782Z,42.43
2018-02-15T08:53:39.083Z,34.97
2018-02-15T08:56:06.647Z,36.57
2018-02-15T08:58:34.216Z,36.00
2018-02-15T09:01:02.519Z,35.17
2018-02-15T09:03:30.093Z,36.63
2018-02-15T09:05:57.648Z,37.73
2018-02-15T09:08:25.187Z,35.80
2018-02-15T09:10:52.760Z,37.03
2018-02-15T09:13:21.066Z,34.83
2018-02-15T09:15:48.604Z,38.33
2018-02-15T09:18:16.204Z,36.37
2018-02-15T09:20:44.523Z,38.00
2018-02-15T09:23:12.090Z,39.27
2018-02-15T09:25:39.868Z,36.47
2018-02-15T09:28:07.444Z,34.83
2018-02-15T09:30:34.979Z,35.00
2018-02-15T09:33:02.623Z,43.77
2018-02-15T09:35:30.192Z,38.10
2018-02-15T09:37:57.764Z,35.60
2018-02-15T09:40:25.364Z,43.13
2018-02-15T09:42:52.903Z,43.30
2018-02-15T09:45:20.444Z,37.57
2018-02-15T09:47:48.031Z,40.67
2018-02-15T09:50:15.617Z,41.37
2018-02-15T09:52:43.162Z,40.43
2018-02-15T09:55:10.769Z,39.67
2018-02-15T09:57:38.311Z,39.07
2018-02-15T10:00:05.893Z,45.87
2018-02-15T10:02:34.758Z,36.93
2018-02-15T10:05:03.102Z,40.00
2018-02-15T10:07:30.685Z,42.33
2018-02-15T10:09:58.280Z,42.47
2018-02-15T10:12:25.831Z,42.70
2018-02-15T10:14:53.379Z,42.47
2018-02-15T10:17:21.313Z,41.37
2018-02-15T10:19:48.859Z,39.90
2018-02-15T10:22:16.436Z,38.53
2018-02-15T10:24:44.891Z,34.03
2018-02-15T10:27:13.191Z,30.20
2018-02-15T10:29:40.739Z,31.37
2018-02-15T10:32:08.357Z,27.10
2018-02-15T10:34:36.665Z,28.27
2018-02-15T10:37:04.240Z,27.77
2018-02-15T10:39:31.980Z,25.27
2018-02-15T10:41:59.518Z,27.70
2018-02-15T10:44:27.097Z,24.13
2018-02-15T10:46:55.520Z,48.90
2018-02-15T10:49:23.052Z,42.70
2018-02-15T10:51:50.621Z,45.23
2018-02-15T10:54:18.279Z,48.27
2018-02-15T10:56:46.579Z,42.67
2018-02-15T10:59:14.152Z,40.50
2018-02-15T11:01:41.712Z,40.23
2018-02-15T11:04:14.864Z,36.70
2018-02-15T11:06:42.764Z,40.50
2018-02-15T11:09:11.087Z,40.43
2018-02-15T11:11:38.660Z,41.13
2018-02-15T11:14:07.071Z,42.30
2018-02-15T11:16:34.605Z,41.00
2018-02-15T11:19:02.144Z,46.23
2018-02-15T11:21:29.715Z,57.93
2018-02-15T11:23:57.259Z,62.90
2018-02-15T11:26:25.563Z,48.43
2018-02-15T11:28:54.237Z,40.83
2018-02-15T11:31:22.545Z,42.20
2018-02-15T11:33:50.116Z,39.60
2018-02-15T11:36:17.713Z,38.60
2018-02-15T11:38:45.243Z,38.87
2018-02-15T11:41:12.825Z,40.30
2018-02-15T11:43:40.439Z,42.10
2018-02-15T11:46:08.008Z,37.97
2018-02-15T11:48:35.557Z,41.27
2018-02-15T11:51:03.120Z,41.70
2018-02-15T11:53:30.700Z,39.70
2018-02-15T11:55:59.010Z,40.10
2018-02-15T11:58:26.582Z,42.80
2018-02-15T12:00:54.160Z,42.13
2018-02-15T12:03:21.699Z,43.63
2018-02-15T12:05:49.293Z,47.57
2018-02-15T12:08:16.830Z,45.60
2018-02-15T12:10:44.391Z,44.23
2018-02-15T12:13:11.951Z,41.83
2018-02-15T12:15:39.529Z,50.07
2018-02-15T12:18:07.067Z,43.87
2018-02-15T12:20:34.875Z,44.70
2018-02-15T12:23:02.453Z,42.03
2018-02-15T12:25:30.756Z,42.13
2018-02-15T12:27:58.353Z,44.43
2018-02-15T12:30:26.705Z,46.40
2018-02-15T12:32:55.048Z,41.80
2018-02-15T12:35:22.791Z,31.27
2018-02-15T12:37:50.331Z,31.57
2018-02-15T12:40:18.651Z,29.87
2018-02-15T12:42:46.352Z,25.43
2018-02-15T12:45:13.896Z,27.47
2018-02-15T12:47:41.474Z,23.00
2018-02-15T12:50:09.848Z,23.10
2018-02-15T12:52:37.416Z,24.03
2018-02-15T12:55:04.965Z,23.17
2018-02-15T12:57:32.609Z,21.37
2018-02-15T13:00:00.159Z,19.33
2018-02-15T13:02:27.641Z,20.03
2018-02-15T13:04:55.224Z,23.23
2018-02-15T13:07:22.758Z,20.17
2018-02-15T13:09:50.300Z,22.53
2018-02-15T13:12:29.745Z,19.83
2018-02-15T13:14:57.320Z,18.37
2018-02-15T13:17:24.857Z,19.77
2018-02-15T13:20:04.365Z,21.10
2018-02-15T13:22:43.723Z,18.77
2018-02-15T13:25:12.047Z,20.03
2018-02-15T13:27:51.383Z,20.50
2018-02-15T13:30:19.080Z,19.37
2018-02-15T13:32:46.653Z,18.00
2018-02-15T13:35:14.230Z,17.37
2018-02-15T13:37:42.033Z,17.17
2018-02-15T13:40:09.576Z,17.50
2018-02-15T13:42:37.110Z,18.80
2018-02-15T13:45:04.721Z,19.60
2018-02-15T13:47:33.027Z,18.10
2018-02-15T13:50:00.604Z,19.53
2018-02-15T13:52:28.217Z,18.43
2018-02-15T13:54:55.751Z,17.70
2018-02-15T13:57:23.335Z,16.73
2018-02-15T13:59:51.117Z,18.10
2018-02-15T14:02:19.465Z,19.77
2018-02-15T14:04:46.995Z,23.00
2018-02-15T14:07:14.596Z,21.63
2018-02-15T14:09:42.164Z,18.87
2018-02-15T14:12:09.707Z,19.73
2018-02-15T14:14:37.675Z,18.20
2018-02-15T14:17:05.256Z,18.47
2018-02-15T14:19:33.562Z,15.43
2018-02-15T14:22:01.144Z,15.07
2018-02-15T14:24:28.716Z,17.30
2018-02-15T14:26:56.270Z,16.37
2018-02-15T14:29:23.869Z,17.90
2018-02-15T14:31:51.341Z,19.37
2018-02-15T14:34:19.641Z,16.03
2018-02-15T14:36:47.415Z,16.53
2018-02-15T14:39:14.992Z,16.17
2018-02-15T14:41:43.282Z,17.70
2018-02-15T14:44:10.839Z,15.77
2018-02-15T14:46:38.412Z,18.50
2018-02-15T14:49:05.884Z,16.37
2018-02-15T14:51:34.298Z,22.93
2018-02-15T14:54:01.872Z,20.20
2018-02-15T14:56:29.411Z,21.77
2018-02-15T14:58:57.122Z,21.53
2018-02-15T15:01:24.647Z,18.27
2018-02-15T15:03:52.215Z,28.53
2018-02-15T15:06:19.812Z,19.10
2018-02-15T15:08:48.515Z,15.70
2018-02-15T15:11:16.202Z,16.83
2018-02-15T15:13:43.953Z,17.53
2018-02-15T15:16:12.371Z,17.27
2018-02-15T15:18:39.953Z,15.17
2018-02-15T15:21:08.551Z,13.93
2018-02-15T15:23:36.951Z,17.73
2018-02-15T15:26:04.470Z,17.13
2018-02-15T15:28:32.964Z,16.97
2018-02-15T15:31:00.478Z,16.70
2018-02-15T15:33:28.771Z,17.73
2018-02-15T15:35:56.659Z,15.37
2018-02-15T15:38:24.232Z,16.97
2018-02-15T15:40:51.742Z,16.67
2018-02-15T15:43:19.328Z,17.17
2018-02-15T15:45:46.867Z,16.83
2018-02-15T15:48:14.407Z,17.53
2018-02-15T15:50:41.975Z,14.00
2018-02-15T15:53:09.511Z,14.20
2018-02-15T15:55:37.048Z,14.10
2018-02-15T15:58:04.839Z,14.43
2018-02-15T16:00:32.374Z,13.70
2018-02-15T16:02:59.948Z,12.10
2018-02-15T16:05:27.559Z,13.60
2018-02-15T16:07:55.867Z,12.30
2018-02-15T16:10:24.172Z,13.40
2018-02-15T16:12:51.744Z,12.37
2018-02-15T16:15:19.325Z,12.83
2018-02-15T16:17:47.627Z,13.30
2018-02-15T16:20:15.482Z,15.00
2018-02-15T16:22:43.766Z,13.70
2018-02-15T16:25:11.329Z,12.20
2018-02-15T16:27:39.604Z,14.10
2018-02-15T16:30:07.908Z,15.50
2018-02-15T16:32:35.448Z,13.80
2018-02-15T16:35:03.006Z,16.07
2018-02-15T16:37:30.488Z,17.50
2018-02-15T16:39:58.824Z,16.20
2018-02-15T16:42:26.433Z,16.53
2018-02-15T16:44:54.016Z,14.37
2018-02-15T16:47:21.557Z,15.77
2018-02-15T16:49:49.120Z,14.03
2018-02-15T16:52:17.423Z,14.23
2018-02-15T16:54:44.930Z,17.13
2018-02-15T16:57:13.505Z,18.10
2018-02-15T16:59:41.807Z,19.27
2018-02-15T17:02:09.376Z,19.40
2018-02-15T17:04:36.952Z,20.07
2018-02-15T17:07:05.294Z,19.90
2018-02-15T17:09:33.647Z,19.97
2018-02-15T17:12:01.204Z,22.10
2018-02-15T17:14:29.632Z,29.87
2018-02-15T17:16:57.200Z,24.23
2018-02-15T17:19:24.977Z,23.93
2018-02-15T17:21:53.216Z,25.87
2018-02-15T17:24:20.752Z,24.97
2018-02-15T17:26:48.298Z,24.27
2018-02-15T17:29:15.798Z,22.77
2018-02-15T17:31:43.319Z,27.63
2018-02-15T17:34:10.879Z,27.90
2018-02-15T17:36:38.386Z,29.43
2018-02-15T17:39:05.915Z,37.80
2018-02-15T17:41:33.510Z,34.77
2018-02-15T17:44:01.053Z,31.30
2018-02-15T17:46:28.589Z,24.33
2018-02-15T17:48:56.196Z,32.27
2018-02-15T17:51:23.771Z,23.97
2018-02-15T17:53:51.352Z,24.53
2018-02-15T17:56:18.919Z,21.50
2018-02-15T17:58:46.451Z,17.57
2018-02-15T18:01:13.995Z,17.73
2018-02-15T18:03:41.988Z,18.63
2018-02-15T18:06:10.324Z,30.97
2018-02-15T18:08:37.899Z,27.17
2018-02-15T18:11:06.268Z,32.40
2018-02-15T18:13:33.810Z,35.87
2018-02-15T18:16:01.380Z,37.07
2018-02-15T18:18:28.948Z,32.63
2018-02-15T18:20:56.498Z,33.87
2018-02-15T18:23:24.080Z,33.27
2018-02-15T18:25:51.887Z,33.57
2018-02-15T18:28:19.427Z,45.00
2018-02-15T18:30:47.051Z,33.93
2018-02-15T18:33:14.745Z,32.50
2018-02-15T18:35:42.311Z,37.30
2018-02-15T18:38:09.867Z,31.13
2018-02-15T18:40:37.584Z,36.20
2018-02-15T18:43:05.902Z,36.73
2018-02-15T18:45:33.449Z,36.00
2018-02-15T18:48:01.144Z,32.27
2018-02-15T18:50:29.491Z,34.00
2018-02-15T18:52:57.009Z,33.17
2018-02-15T18:55:24.590Z,30.60
2018-02-15T18:57:52.891Z,33.07
2018-02-15T19:00:20.432Z,31.53
2018-02-15T19:02:48.111Z,24.80
2018-02-15T19:05:15.655Z,25.33
2018-02-15T19:07:43.954Z,23.07
2018-02-15T19:30:25.474Z,27.97
2018-02-15T19:32:53.151Z,33.60
2018-02-15T19:35:20.720Z,28.80
2018-02-15T19:37:49.030Z,35.33
2018-02-15T19:57:37.631Z,38.70
2018-02-15T20:00:05.203Z,32.57
2018-02-15T20:02:32.750Z,32.40
2018-02-15T20:05:00.637Z,35.77
2018-02-15T20:07:28.166Z,29.37
2018-02-15T20:27:20.896Z,27.70
2018-02-15T20:29:48.465Z,23.37
2018-02-15T20:32:15.995Z,19.87
2018-02-15T20:34:43.989Z,24.27
2018-02-15T20:37:12.299Z,28.50
2018-02-15T20:57:01.196Z,25.77
2018-02-15T20:59:29.498Z,23.97
2018-02-15T21:01:57.041Z,24.50
2018-02-15T21:04:24.840Z,23.37
2018-02-15T21:06:53.152Z,24.63
2018-02-15T21:09:20.728Z,30.57
2018-02-15T21:11:48.663Z,27.87
2018-02-15T21:14:16.236Z,24.90
2018-02-15T21:16:44.777Z,29.93
2018-02-15T21:19:12.376Z,47.70
2018-02-15T21:21:39.954Z,48.73
2018-02-15T21:24:07.499Z,47.53
2018-02-15T21:26:35.303Z,47.23
2018-02-15T21:29:02.891Z,37.73
2018-02-15T21:31:30.481Z,38.33
2018-02-15T21:33:58.966Z,34.97
2018-02-15T21:36:26.568Z,36.97
2018-02-15T21:38:54.112Z,36.63
2018-02-15T21:41:21.675Z,38.23
2018-02-15T21:43:50.017Z,35.00
2018-02-15T21:46:17.597Z,35.77
2018-02-15T21:48:46.163Z,42.03
2018-02-15T21:51:14.499Z,41.07
2018-02-15T21:53:42.073Z,40.50
2018-02-15T21:56:09.864Z,40.10
2018-02-15T21:58:37.402Z,34.03
2018-02-15T22:18:26.001Z,30.57
2018-02-15T22:20:53.551Z,33.40
2018-02-15T22:40:39.760Z,24.50
2018-02-15T22:43:07.341Z,29.63
2018-02-15T22:45:34.880Z,24.60
2018-02-15T23:05:21.808Z,23.47
2018-02-15T23:07:50.061Z,22.40
2018-02-15T23:10:17.592Z,21.53
2018-02-15T23:12:45.196Z,19.47
2018-02-15T23:15:12.772Z,21.13
2018-02-15T23:17:40.345Z,25.87
2018-02-15T23:20:08.047Z,25.00
2018-02-15T23:22:35.522Z,21.50
2018-02-15T23:42:23.119Z,29.70
2018-02-15T23:44:50.697Z,28.33
2018-02-15T23:47:19.068Z,27.63
2018-02-15T23:49:48.115Z,25.10
2018-02-15T23:52:15.684Z,24.10
2018-02-15T23:54:43.990Z,27.17
2018-02-15T23:57:11.800Z,23.03
2018-02-15T23:59:40.140Z,24.87
